Greasewood Springs, Arizona
Current Conditions -  °F | °C
As of 12:53 PM on Monday 24 Nov 2014 (Local Time) from KFMN Reporting Station
Clear Clear  
Wind Chill: 32°   Ceiling: Unl
Heat Index: 41°   Visibility: 10mi
Dew Point:   Wind: 21mph
Humidity: 27%   Direction: 300°WNW
Pressure: 30.12"   Gusts: 33mph
Location:  36.4446°N, 109.262°W
Report Text: KFMN 241953Z 30018G29KT 10SM CLR 05/M13 A3012 RMK AO2 PK WND 30029/1948 SLP217 T00501128
Loading
Personal Weather Stations






























Interactive Weather Map New forecast layout! Learn more

10-Day Weather Forecast

Advertisements
Track Severe Weather on mobile